Terminal Aerodrome Forecast
Issued by NWS Mt. Holly, NJ

Home | Current Version | Previous Version | Text Only | Print | Product List | Glossary On
Versions: 1 2 3 4 5 6 7 8 9 10 11 12 13 14 15 16 17 18 19 20 21 22
000
FTUS41 KPHI 192300
TAFPHL
TAF
KPHL 192331Z 2000/2106 11011KT P6SM FEW025
     FM200200 11006KT P6SM OVC025
     FM201100 12004KT P6SM OVC015
     FM201500 16007KT P6SM OVC025
     FM201700 19011KT P6SM BKN035
     FM210200 15005KT P6SM OVC020
     FM210500 15003KT P6SM OVC009=

USA.gov is the U.S. government's official web portal to all federal, state and local government web resources and services.